Time;durP1;ratioP1;P1;durP2;ratioP2;P2;SDS_P1;SDS_P2;PMS_P1;PMS_P2;Temp;Humidity;BMP_temperature;BMP_pressure;BME280_temperature;BME280_humidity;BME280_pressure;Samples;Min_cycle;Max_cycle;Signal;HPM_P1;HPM_P2
2022/05/06 00:00:28;;;;;;;1.50;1.40;;;;;;;;;;5140501;27;20557;-54
2022/05/06 00:02:56;;;;;;;1.70;1.48;;;;;;;;;;5142737;27;20241;-54
2022/05/06 00:05:23;;;;;;;1.80;1.70;;;;;;;;;;5142297;27;20302;-54
2022/05/06 00:07:51;;;;;;;1.80;1.70;;;;;;;;;;5141865;27;20261;-54
2022/05/06 00:10:18;;;;;;;1.70;1.60;;;;;;;;;;5123496;27;20306;-54
2022/05/06 00:12:45;;;;;;;1.40;1.30;;;;;;;;;;5121617;28;20256;-54
2022/05/06 00:15:14;;;;;;;1.50;1.40;;;;;;;;;;5121652;28;20245;-54
2022/05/06 00:17:43;;;;;;;1.67;1.58;;;;;;;;;;5121460;28;20229;-54
2022/05/06 00:20:11;;;;;;;1.60;1.50;;;;;;;;;;5138463;27;20594;-54
2022/05/06 00:22:39;;;;;;;1.70;1.60;;;;;;;;;;5142396;27;20251;-54
2022/05/06 00:25:06;;;;;;;1.70;1.60;;;;;;;;;;5142118;27;20264;-54
2022/05/06 00:27:34;;;;;;;1.70;1.60;;;;;;;;;;5141842;27;20285;-54
2022/05/06 00:30:02;;;;;;;1.30;1.27;;;;;;;;;;5125770;27;20306;-54
2022/05/06 00:32:29;;;;;;;1.63;1.52;;;;;;;;;;5120889;28;20214;-54
2022/05/06 00:34:58;;;;;;;1.40;1.30;;;;;;;;;;5121170;28;20234;-54
2022/05/06 00:37:25;;;;;;;1.50;1.40;;;;;;;;;;5128283;27;20233;-53
2022/05/06 00:39:53;;;;;;;1.60;1.50;;;;;;;;;;5141334;27;20710;-54
2022/05/06 00:42:21;;;;;;;1.30;1.20;;;;;;;;;;5141669;27;20202;-53
2022/05/06 00:44:49;;;;;;;1.65;1.55;;;;;;;;;;5141505;27;20237;-54
2022/05/06 00:47:18;;;;;;;1.42;1.33;;;;;;;;;;5135929;27;20203;-54
2022/05/06 00:49:46;;;;;;;1.30;1.20;;;;;;;;;;5120530;28;20286;-54
2022/05/06 00:52:17;;;;;;;1.55;1.45;;;;;;;;;;5120935;28;20489;-54
2022/05/06 00:54:45;;;;;;;1.40;1.40;;;;;;;;;;5120984;28;20745;-54
2022/05/06 00:57:13;;;;;;;1.52;1.42;;;;;;;;;;5120505;27;20230;-54
2022/05/06 01:02:22;;;;;;;1.40;1.30;;;;;;;;;;5120324;28;20201;-53
2022/05/06 01:04:50;;;;;;;1.50;1.40;;;;;;;;;;5120648;28;20210;-54
2022/05/06 01:07:19;;;;;;;1.52;1.42;;;;;;;;;;5125752;27;20293;-53
2022/05/06 01:09:49;;;;;;;1.20;1.20;;;;;;;;;;5140584;27;20518;-54
2022/05/06 01:12:17;;;;;;;1.38;1.27;;;;;;;;;;5140990;27;20650;-54
2022/05/06 01:14:44;;;;;;;1.40;1.30;;;;;;;;;;5140946;27;20297;-53
2022/05/06 01:17:13;;;;;;;1.60;1.50;;;;;;;;;;5136180;27;20239;-53
2022/05/06 01:19:40;;;;;;;1.60;1.50;;;;;;;;;;5120392;28;20203;-54
2022/05/06 01:22:09;;;;;;;1.40;1.30;;;;;;;;;;5120419;28;20511;-54
2022/05/06 01:24:37;;;;;;;1.60;1.50;;;;;;;;;;5119818;28;20297;-54
2022/05/06 01:27:05;;;;;;;1.25;1.20;;;;;;;;;;5122561;27;20237;-54
2022/05/06 01:29:33;;;;;;;1.48;1.38;;;;;;;;;;5139845;27;20281;-54
2022/05/06 01:32:01;;;;;;;1.20;1.10;;;;;;;;;;5140292;27;20221;-54
2022/05/06 01:34:32;;;;;;;1.67;1.58;;;;;;;;;;5140729;27;20206;-54
2022/05/06 01:37:02;;;;;;;1.50;1.40;;;;;;;;;;5137805;27;20212;-53
2022/05/06 01:39:32;;;;;;;1.27;1.25;;;;;;;;;;5119886;28;20239;-54
2022/05/06 01:42:01;;;;;;;1.17;1.15;;;;;;;;;;5119633;28;20272;-54
2022/05/06 01:44:32;;;;;;;1.38;1.27;;;;;;;;;;5119651;27;20285;-53
2022/05/06 01:47:00;;;;;;;1.30;1.20;;;;;;;;;;5121757;27;20241;-54
2022/05/06 01:49:29;;;;;;;1.10;1.00;;;;;;;;;;5140081;27;20285;-54
2022/05/06 01:51:59;;;;;;;1.25;1.15;;;;;;;;;;5139319;27;20264;-53
2022/05/06 01:54:27;;;;;;;1.33;1.23;;;;;;;;;;5120037;28;20560;-53
2022/05/06 01:56:55;;;;;;;1.40;1.30;;;;;;;;;;5119984;27;20211;-55
2022/05/06 01:59:23;;;;;;;1.13;1.10;;;;;;;;;;5119304;28;20309;-55
2022/05/06 02:01:50;;;;;;;1.40;1.30;;;;;;;;;;5119023;28;20545;-53
2022/05/06 02:07:03;;;;;;;1.02;1.02;;;;;;;;;;5120602;27;20252;-55
2022/05/06 02:09:30;;;;;;;1.40;1.30;;;;;;;;;;5139698;27;20203;-53
2022/05/06 02:11:59;;;;;;;1.40;1.30;;;;;;;;;;5139650;27;20230;-53
2022/05/06 02:14:27;;;;;;;1.35;1.25;;;;;;;;;;5140132;27;20333;-53
2022/05/06 02:16:55;;;;;;;1.38;1.27;;;;;;;;;;5139090;27;20234;-53
2022/05/06 02:19:23;;;;;;;1.10;1.10;;;;;;;;;;5118994;28;20294;-55
2022/05/06 02:21:50;;;;;;;1.10;1.10;;;;;;;;;;5119218;28;20302;-53
2022/05/06 02:24:17;;;;;;;1.23;1.13;;;;;;;;;;5119187;28;20751;-53
2022/05/06 02:26:45;;;;;;;1.42;1.33;;;;;;;;;;5119272;28;20290;-53
2022/05/06 02:29:14;;;;;;;1.50;1.40;;;;;;;;;;5138740;27;20285;-53
2022/05/06 02:34:26;;;;;;;1.20;1.20;;;;;;;;;;5138689;27;20189;-53
2022/05/06 02:36:54;;;;;;;1.20;1.10;;;;;;;;;;5138863;27;20296;-55
2022/05/06 02:39:21;;;;;;;1.02;1.02;;;;;;;;;;5118467;28;20254;-53
2022/05/06 02:41:48;;;;;;;0.90;0.90;;;;;;;;;;5118313;28;20293;-55
2022/05/06 02:44:17;;;;;;;1.35;1.25;;;;;;;;;;5119073;28;20536;-53
2022/05/06 02:46:45;;;;;;;1.10;1.10;;;;;;;;;;5118469;28;20217;-53
2022/05/06 02:49:13;;;;;;;1.10;1.10;;;;;;;;;;5137013;27;20234;-55
2022/05/06 02:51:40;;;;;;;1.10;1.10;;;;;;;;;;5139081;27;20264;-55
2022/05/06 02:54:08;;;;;;;1.10;1.10;;;;;;;;;;5138858;27;20198;-53
2022/05/06 02:56:35;;;;;;;1.00;1.00;;;;;;;;;;5139430;28;20203;-53
2022/05/06 02:59:04;;;;;;;1.10;1.00;;;;;;;;;;5121401;28;20245;-53
2022/05/06 03:01:33;;;;;;;0.88;0.88;;;;;;;;;;5118124;28;20199;-55
2022/05/06 03:04:00;;;;;;;1.05;1.05;;;;;;;;;;5118221;28;20238;-55
2022/05/06 03:06:28;;;;;;;1.13;1.02;;;;;;;;;;5118646;28;20237;-53
2022/05/06 03:09:00;;;;;;;1.00;1.00;;;;;;;;;;5134103;28;20289;-53
2022/05/06 03:11:28;;;;;;;1.10;1.02;;;;;;;;;;5138438;28;20324;-53
2022/05/06 03:13:56;;;;;;;0.98;0.98;;;;;;;;;;5142121;27;20201;-56
2022/05/06 03:16:24;;;;;;;1.15;1.10;;;;;;;;;;5143316;27;20753;-53
2022/05/06 03:18:53;;;;;;;1.20;1.10;;;;;;;;;;5127212;27;20293;-55
2022/05/06 03:21:20;;;;;;;1.00;1.00;;;;;;;;;;5122435;28;20199;-53
2022/05/06 03:23:50;;;;;;;2.25;1.10;;;;;;;;;;5122620;28;20209;-53
2022/05/06 03:26:17;;;;;;;1.17;1.08;;;;;;;;;;5122092;28;20617;-53
2022/05/06 03:28:46;;;;;;;1.10;1.10;;;;;;;;;;5135604;27;20194;-55
2022/05/06 03:31:14;;;;;;;0.80;0.80;;;;;;;;;;5142344;27;20229;-55
2022/05/06 03:33:42;;;;;;;0.90;0.90;;;;;;;;;;5142340;27;20202;-55
2022/05/06 03:36:11;;;;;;;0.90;0.90;;;;;;;;;;5142011;27;20202;-55
2022/05/06 03:38:39;;;;;;;1.65;1.20;;;;;;;;;;5127941;27;20254;-55
2022/05/06 03:41:09;;;;;;;1.10;1.10;;;;;;;;;;5121698;28;20210;-55
2022/05/06 03:43:39;;;;;;;1.20;1.10;;;;;;;;;;5121680;28;20453;-53
2022/05/06 03:46:06;;;;;;;1.33;1.23;;;;;;;;;;5121846;28;20263;-53
2022/05/06 03:48:35;;;;;;;0.90;0.90;;;;;;;;;;5134042;27;20229;-55
2022/05/06 03:53:49;;;;;;;0.77;0.77;;;;;;;;;;5141373;27;20594;-53
2022/05/06 03:56:16;;;;;;;0.90;0.90;;;;;;;;;;5141422;27;20593;-55
2022/05/06 03:58:44;;;;;;;0.93;0.93;;;;;;;;;;5127306;27;20203;-55
2022/05/06 04:01:12;;;;;;;0.80;0.80;;;;;;;;;;5121077;28;20289;-55
2022/05/06 04:03:40;;;;;;;0.98;0.98;;;;;;;;;;5121015;28;20203;-53
2022/05/06 04:06:07;;;;;;;0.80;0.80;;;;;;;;;;5121887;28;20574;-55
2022/05/06 04:08:35;;;;;;;0.90;0.90;;;;;;;;;;5132961;27;20298;-53
2022/05/06 04:11:04;;;;;;;0.90;0.90;;;;;;;;;;5141737;27;20228;-53
2022/05/06 04:13:32;;;;;;;1.00;1.00;;;;;;;;;;5141226;27;20204;-53
2022/05/06 04:16:01;;;;;;;1.00;1.00;;;;;;;;;;5141255;27;20225;-53
2022/05/06 04:18:29;;;;;;;1.25;0.90;;;;;;;;;;5130325;27;20195;-53
2022/05/06 04:23:41;;;;;;;1.00;1.00;;;;;;;;;;5118604;28;20260;-55
2022/05/06 04:26:11;;;;;;;0.93;0.93;;;;;;;;;;5120343;28;20203;-53
2022/05/06 04:28:39;;;;;;;0.88;0.88;;;;;;;;;;5129470;27;20209;-53
2022/05/06 04:31:06;;;;;;;1.00;1.00;;;;;;;;;;5140792;27;20226;-53
2022/05/06 04:33:34;;;;;;;0.95;0.95;;;;;;;;;;5140812;27;20410;-56
2022/05/06 04:36:04;;;;;;;0.95;0.95;;;;;;;;;;5141005;27;20230;-53
2022/05/06 04:38:31;;;;;;;0.90;0.90;;;;;;;;;;5132504;27;20246;-53
2022/05/06 04:40:59;;;;;;;0.90;0.90;;;;;;;;;;5119756;28;20234;-53
2022/05/06 04:43:29;;;;;;;0.80;0.80;;;;;;;;;;5119234;28;20594;-53
2022/05/06 04:45:57;;;;;;;0.90;0.90;;;;;;;;;;5119526;28;20242;-55
2022/05/06 04:48:26;;;;;;;0.80;0.80;;;;;;;;;;5124157;27;20198;-53
2022/05/06 04:50:54;;;;;;;0.88;0.88;;;;;;;;;;5139821;27;20484;-55
2022/05/06 04:53:21;;;;;;;1.20;1.00;;;;;;;;;;5138093;27;20253;-53
2022/05/06 04:55:50;;;;;;;0.90;0.90;;;;;;;;;;5138421;27;20270;-55
2022/05/06 04:58:18;;;;;;;0.90;0.90;;;;;;;;;;5133165;27;20285;-55
2022/05/06 05:00:47;;;;;;;0.95;0.90;;;;;;;;;;5117796;28;20268;-55
2022/05/06 05:03:15;;;;;;;0.93;0.93;;;;;;;;;;5117876;28;20206;-54
2022/05/06 05:05:43;;;;;;;0.95;0.80;;;;;;;;;;5116984;28;20249;-53
2022/05/06 05:08:10;;;;;;;0.95;0.95;;;;;;;;;;5119976;27;20205;-53
2022/05/06 05:10:38;;;;;;;0.90;0.90;;;;;;;;;;5135716;27;20717;-53
2022/05/06 05:13:05;;;;;;;1.85;0.90;;;;;;;;;;5136892;27;20257;-55
2022/05/06 05:15:33;;;;;;;1.00;1.00;;;;;;;;;;5137398;27;20242;-55
2022/05/06 05:18:02;;;;;;;1.25;0.90;;;;;;;;;;5134507;27;20233;-53
2022/05/06 05:20:30;;;;;;;1.05;1.05;;;;;;;;;;5125996;27;20209;-53
2022/05/06 05:22:57;;;;;;;0.90;0.90;;;;;;;;;;5136076;27;20293;-55
2022/05/06 05:25:25;;;;;;;0.80;0.80;;;;;;;;;;5137117;27;20226;-53
2022/05/06 05:27:52;;;;;;;0.95;0.95;;;;;;;;;;5129834;27;20230;-55
2022/05/06 05:30:20;;;;;;;0.93;0.90;;;;;;;;;;5136445;27;20242;-53
2022/05/06 05:32:48;;;;;;;1.00;1.00;;;;;;;;;;5136818;27;20614;-53
2022/05/06 05:35:17;;;;;;;0.90;0.90;;;;;;;;;;5136596;27;20237;-55
2022/05/06 05:37:44;;;;;;;0.80;0.80;;;;;;;;;;5136492;27;20261;-53
2022/05/06 05:40:12;;;;;;;0.95;0.95;;;;;;;;;;5116499;28;20579;-53
2022/05/06 05:42:39;;;;;;;1.25;0.93;;;;;;;;;;5115507;28;20306;-55
2022/05/06 05:50:50;;;;;;;0.90;0.90;;;;;;;;;;5073477;28;20192;-55
2022/05/06 05:53:18;;;;;;;1.33;1.00;;;;;;;;;;5121848;27;20555;-53
2022/05/06 05:55:45;;;;;;;0.73;0.73;;;;;;;;;;5136334;27;20252;-53
2022/05/06 05:58:13;;;;;;;1.00;1.00;;;;;;;;;;5133831;27;20226;-54
2022/05/06 06:00:41;;;;;;;0.80;0.80;;;;;;;;;;5116751;27;20226;-53
2022/05/06 06:03:08;;;;;;;1.02;1.02;;;;;;;;;;5116503;28;20241;-53
2022/05/06 06:05:36;;;;;;;0.90;0.90;;;;;;;;;;5116666;28;20298;-55
2022/05/06 06:08:05;;;;;;;1.20;1.10;;;;;;;;;;5117476;27;20262;-53
2022/05/06 06:10:33;;;;;;;2.92;1.40;;;;;;;;;;5137183;27;20289;-55
2022/05/06 06:13:02;;;;;;;4.75;1.92;;;;;;;;;;5136573;27;20240;-53
2022/05/06 06:15:29;;;;;;;6.97;2.63;;;;;;;;;;5137134;27;20202;-53
2022/05/06 06:17:57;;;;;;;8.80;3.50;;;;;;;;;;5135801;27;20213;-53
2022/05/06 06:20:26;;;;;;;8.55;3.60;;;;;;;;;;5115911;28;20234;-53
2022/05/06 06:22:53;;;;;;;11.25;4.35;;;;;;;;;;5116367;28;20199;-55
2022/05/06 06:25:22;;;;;;;11.18;4.57;;;;;;;;;;5116006;28;20229;-53
2022/05/06 06:27:50;;;;;;;10.10;5.15;;;;;;;;;;5116208;28;20202;-53
2022/05/06 06:30:17;;;;;;;12.88;5.40;;;;;;;;;;5132785;27;20213;-55
2022/05/06 06:32:45;;;;;;;12.68;5.55;;;;;;;;;;5136131;27;20312;-55
2022/05/06 06:35:12;;;;;;;11.50;5.85;;;;;;;;;;5136874;27;20226;-53
2022/05/06 06:37:40;;;;;;;13.02;5.88;;;;;;;;;;5136505;27;20210;-55
2022/05/06 06:42:46;;;;;;;14.07;5.85;;;;;;;;;;5199982;22;20304;-53
2022/05/06 06:45:13;;;;;;;12.80;5.95;;;;;;;;;;5096030;28;20650;-55
2022/05/06 06:47:41;;;;;;;14.63;6.20;;;;;;;;;;5096061;28;20210;-53
2022/05/06 06:50:09;;;;;;;16.10;6.28;;;;;;;;;;5096328;28;20207;-53
2022/05/06 06:52:36;;;;;;;15.05;6.82;;;;;;;;;;5095705;28;20227;-53
2022/05/06 06:55:04;;;;;;;14.38;6.40;;;;;;;;;;5096356;28;20199;-53
2022/05/06 06:57:31;;;;;;;15.00;6.82;;;;;;;;;;5094232;28;20214;-53
2022/05/06 07:00:00;;;;;;;14.25;6.25;;;;;;;;;;5095435;28;20273;-55
2022/05/06 07:02:28;;;;;;;12.27;6.45;;;;;;;;;;5095231;28;20207;-53
2022/05/06 07:04:55;;;;;;;13.65;6.70;;;;;;;;;;5095660;28;20269;-53
2022/05/06 07:12:53;;;;;;;17.38;7.45;;;;;;;;;;5075503;28;20224;-54
2022/05/06 07:15:23;;;;;;;12.23;6.30;;;;;;;;;;5075010;28;20231;-53
2022/05/06 07:17:50;;;;;;;12.70;6.72;;;;;;;;;;5074759;28;20208;-53
2022/05/06 07:20:17;;;;;;;13.55;7.10;;;;;;;;;;5074491;28;20216;-55
2022/05/06 07:22:45;;;;;;;13.57;6.85;;;;;;;;;;5075219;28;20606;-53
2022/05/06 07:25:12;;;;;;;15.65;7.10;;;;;;;;;;5075127;28;20299;-55
2022/05/06 07:27:40;;;;;;;13.45;7.22;;;;;;;;;;5075065;28;20203;-53
2022/05/06 07:30:08;;;;;;;15.48;7.07;;;;;;;;;;5074877;28;20222;-53
2022/05/06 07:32:38;;;;;;;13.23;7.00;;;;;;;;;;5074880;28;20254;-53
2022/05/06 07:35:06;;;;;;;15.75;6.70;;;;;;;;;;5090270;28;20239;-53
2022/05/06 07:37:33;;;;;;;12.23;6.07;;;;;;;;;;5094061;28;20598;-53
2022/05/06 07:40:01;;;;;;;10.95;6.50;;;;;;;;;;5094628;28;20499;-55
2022/05/06 07:42:28;;;;;;;12.73;6.32;;;;;;;;;;5110537;28;20230;-53
2022/05/06 07:44:56;;;;;;;13.45;7.22;;;;;;;;;;5114653;28;20211;-55
2022/05/06 07:47:23;;;;;;;12.45;6.47;;;;;;;;;;5115185;28;20203;-54
2022/05/06 07:49:52;;;;;;;12.75;6.30;;;;;;;;;;5115088;28;20203;-54
2022/05/06 07:52:20;;;;;;;14.65;6.63;;;;;;;;;;5115741;28;20230;-53
2022/05/06 07:54:47;;;;;;;11.52;6.68;;;;;;;;;;5115116;28;20195;-55
2022/05/06 07:57:14;;;;;;;12.07;6.45;;;;;;;;;;5114982;28;20199;-53
2022/05/06 07:59:42;;;;;;;11.88;6.40;;;;;;;;;;5116011;28;20203;-55
2022/05/06 08:04:55;;;;;;;13.48;7.25;;;;;;;;;;5119618;28;20662;-53
2022/05/06 08:07:23;;;;;;;11.15;6.35;;;;;;;;;;5118715;28;20207;-55
2022/05/06 08:09:50;;;;;;;12.98;6.53;;;;;;;;;;5118989;28;20665;-54
2022/05/06 08:12:17;;;;;;;13.45;6.32;;;;;;;;;;5118851;28;20227;-53
2022/05/06 08:14:45;;;;;;;11.52;6.32;;;;;;;;;;5118567;28;20199;-55
2022/05/06 08:17:13;;;;;;;11.45;5.93;;;;;;;;;;5119169;28;20203;-54
2022/05/06 08:19:40;;;;;;;9.55;5.20;;;;;;;;;;5117770;28;20207;-53
2022/05/06 08:22:09;;;;;;;11.70;6.05;;;;;;;;;;5118300;28;20199;-55
2022/05/06 08:24:36;;;;;;;11.27;5.90;;;;;;;;;;5118062;28;20199;-53
2022/05/06 08:27:04;;;;;;;13.77;6.03;;;;;;;;;;5118470;28;20203;-56
2022/05/06 08:29:31;;;;;;;10.30;5.63;;;;;;;;;;5118205;28;20212;-53
2022/05/06 08:31:58;;;;;;;11.98;5.60;;;;;;;;;;5118062;28;20195;-55
2022/05/06 08:34:26;;;;;;;10.40;5.47;;;;;;;;;;5117590;28;20219;-55
2022/05/06 08:36:53;;;;;;;10.60;5.82;;;;;;;;;;5117968;28;20203;-55
2022/05/06 08:39:22;;;;;;;10.23;5.32;;;;;;;;;;5118402;28;20195;-53
2022/05/06 08:41:50;;;;;;;8.90;5.10;;;;;;;;;;5117921;28;20257;-55
2022/05/06 08:52:34;;;;;;;7.78;5.18;;;;;;;;;;5117586;28;20848;-53
2022/05/06 08:55:05;;;;;;;8.13;5.10;;;;;;;;;;5118434;28;20763;-53
2022/05/06 08:57:32;;;;;;;7.18;4.40;;;;;;;;;;5117673;28;20226;-54
2022/05/06 09:00:00;;;;;;;8.30;5.10;;;;;;;;;;5115950;28;20203;-55
2022/05/06 09:02:27;;;;;;;7.38;4.70;;;;;;;;;;5117350;28;20203;-54
2022/05/06 09:04:55;;;;;;;6.97;4.60;;;;;;;;;;5116306;28;20513;-53
2022/05/06 09:07:24;;;;;;;8.10;4.72;;;;;;;;;;5116504;28;20203;-54
2022/05/06 09:10:18;;;;;;;7.30;4.32;;;;;;;;;;5116535;28;20242;-54
2022/05/06 09:12:47;;;;;;;8.90;4.32;;;;;;;;;;5079811;28;20223;-54
2022/05/06 09:18:00;;;;;;;7.53;4.43;;;;;;;;;;5115911;28;20185;-55
2022/05/06 09:20:28;;;;;;;8.38;4.72;;;;;;;;;;5116594;28;20195;-54
2022/05/06 09:22:56;;;;;;;6.15;4.30;;;;;;;;;;5116132;28;20237;-55
2022/05/06 09:25:36;;;;;;;6.13;4.20;;;;;;;;;;5115782;28;20222;-62
2022/05/06 09:28:05;;;;;;;6.40;4.03;;;;;;;;;;5116807;28;20217;-55
2022/05/06 09:30:33;;;;;;;7.03;4.13;;;;;;;;;;5116751;28;20210;-56
2022/05/06 09:33:01;;;;;;;6.55;4.43;;;;;;;;;;5116004;28;20609;-53
2022/05/06 09:35:30;;;;;;;5.82;4.10;;;;;;;;;;5113548;28;20199;-53
2022/05/06 09:38:02;;;;;;;6.70;4.40;;;;;;;;;;5113004;28;20207;-54
2022/05/06 09:40:30;;;;;;;5.78;4.10;;;;;;;;;;5114486;28;20203;-54
2022/05/06 09:43:01;;;;;;;6.18;3.97;;;;;;;;;;5112053;28;20246;-55
2022/05/06 09:45:34;;;;;;;5.82;3.72;;;;;;;;;;5114238;28;20214;-54
2022/05/06 09:48:03;;;;;;;5.53;3.95;;;;;;;;;;5115384;28;20203;-54
2022/05/06 09:50:34;;;;;;;4.57;3.50;;;;;;;;;;5115365;28;20199;-53
2022/05/06 09:53:02;;;;;;;6.40;3.65;;;;;;;;;;5115589;28;20214;-54
2022/05/06 09:55:32;;;;;;;5.50;3.70;;;;;;;;;;5114277;28;20238;-54
2022/05/06 09:58:02;;;;;;;5.47;4.00;;;;;;;;;;5115555;28;20294;-54
2022/05/06 10:00:32;;;;;;;5.45;3.50;;;;;;;;;;5116161;28;20206;-53
2022/05/06 10:03:02;;;;;;;5.05;3.53;;;;;;;;;;5115667;28;20199;-55
2022/05/06 10:05:29;;;;;;;4.63;3.03;;;;;;;;;;5114389;28;20206;-56
2022/05/06 10:07:58;;;;;;;4.43;3.15;;;;;;;;;;5115790;28;20203;-55
2022/05/06 10:10:26;;;;;;;4.03;2.92;;;;;;;;;;5115447;28;20570;-54
2022/05/06 10:12:56;;;;;;;5.22;3.17;;;;;;;;;;5114846;28;20223;-56
2022/05/06 10:15:25;;;;;;;4.60;3.40;;;;;;;;;;5114938;28;20242;-54
2022/05/06 10:17:53;;;;;;;4.70;3.22;;;;;;;;;;5115461;28;20202;-53
2022/05/06 10:20:41;;;;;;;4.00;3.17;;;;;;;;;;5114929;28;20204;-54
2022/05/06 10:23:11;;;;;;;4.22;3.10;;;;;;;;;;5114397;28;20207;-54
2022/05/06 10:25:55;;;;;;;3.88;3.13;;;;;;;;;;5114441;28;20239;-53
2022/05/06 10:34:31;;;;;;;4.40;3.08;;;;;;;;;;5113756;28;20534;-54
2022/05/06 10:37:01;;;;;;;3.58;2.70;;;;;;;;;;5113938;28;20202;-54
2022/05/06 10:39:30;;;;;;;4.22;2.95;;;;;;;;;;5114193;28;20207;-53
2022/05/06 10:42:02;;;;;;;4.05;2.88;;;;;;;;;;5114543;28;20254;-53
2022/05/06 10:44:34;;;;;;;4.60;3.05;;;;;;;;;;5113249;28;20221;-56
2022/05/06 10:47:01;;;;;;;4.70;3.42;;;;;;;;;;5113598;28;20271;-55
2022/05/06 10:49:52;;;;;;;3.35;2.72;;;;;;;;;;5114211;28;20202;-54
2022/05/06 10:52:37;;;;;;;3.83;3.00;;;;;;;;;;5113617;28;20199;-54
2022/05/06 10:55:06;;;;;;;4.05;2.83;;;;;;;;;;5084138;28;20231;-54
2022/05/06 10:57:36;;;;;;;3.42;2.50;;;;;;;;;;5093853;28;20597;-54
2022/05/06 11:00:05;;;;;;;3.10;2.70;;;;;;;;;;5093303;28;20290;-55
2022/05/06 11:02:33;;;;;;;3.42;2.55;;;;;;;;;;5094937;28;20207;-55
2022/05/06 11:05:01;;;;;;;3.28;2.75;;;;;;;;;;5114917;28;20199;-54
2022/05/06 11:07:29;;;;;;;3.58;2.60;;;;;;;;;;5114544;28;20202;-55
2022/05/06 11:09:56;;;;;;;4.07;2.80;;;;;;;;;;5114135;28;20214;-54
2022/05/06 11:12:33;;;;;;;2.72;2.35;;;;;;;;;;5114463;28;20454;-55
2022/05/06 11:15:01;;;;;;;4.20;2.65;;;;;;;;;;5092762;28;20215;-54
2022/05/06 11:17:29;;;;;;;3.53;2.35;;;;;;;;;;5093739;28;20226;-54
2022/05/06 11:19:56;;;;;;;3.00;2.30;;;;;;;;;;5092736;28;20488;-53
2022/05/06 11:22:24;;;;;;;3.30;2.40;;;;;;;;;;5093313;28;20199;-54
2022/05/06 11:24:56;;;;;;;2.90;2.38;;;;;;;;;;5112530;28;20302;-54
2022/05/06 11:27:24;;;;;;;2.75;2.38;;;;;;;;;;5114453;28;20211;-54
2022/05/06 11:29:55;;;;;;;2.75;2.35;;;;;;;;;;5114198;28;20203;-56
2022/05/06 11:32:23;;;;;;;2.70;2.20;;;;;;;;;;5114007;28;20301;-54
2022/05/06 11:34:56;;;;;;;3.13;2.60;;;;;;;;;;5115919;28;20313;-54
2022/05/06 11:37:23;;;;;;;3.17;2.45;;;;;;;;;;5117692;28;20286;-54
2022/05/06 11:39:51;;;;;;;3.38;2.63;;;;;;;;;;5117659;28;20210;-54
2022/05/06 11:42:22;;;;;;;3.00;2.47;;;;;;;;;;5116847;28;20623;-54
2022/05/06 11:47:45;;;;;;;2.83;2.30;;;;;;;;;;5117133;28;20198;-54
2022/05/06 11:50:12;;;;;;;3.50;2.50;;;;;;;;;;5117034;28;20202;-54
2022/05/06 11:52:40;;;;;;;2.65;2.17;;;;;;;;;;5117824;28;20218;-54
2022/05/06 11:55:08;;;;;;;2.53;2.20;;;;;;;;;;5097833;28;20223;-54
2022/05/06 11:57:36;;;;;;;2.90;2.33;;;;;;;;;;5096871;28;20219;-54
2022/05/06 12:00:06;;;;;;;3.08;2.22;;;;;;;;;;5096643;28;20299;-54
2022/05/06 12:02:33;;;;;;;2.90;2.28;;;;;;;;;;5096889;28;20474;-54
2022/05/06 12:05:01;;;;;;;2.25;2.00;;;;;;;;;;5116446;28;20211;-54
2022/05/06 12:07:41;;;;;;;2.42;2.17;;;;;;;;;;5117041;28;20198;-54
2022/05/06 12:10:09;;;;;;;2.17;1.98;;;;;;;;;;5116912;28;20206;-55
2022/05/06 12:12:51;;;;;;;2.15;1.95;;;;;;;;;;5116745;28;20276;-54
2022/05/06 12:15:20;;;;;;;2.47;2.00;;;;;;;;;;5101775;28;20227;-54
2022/05/06 12:17:48;;;;;;;2.22;2.03;;;;;;;;;;5117017;28;20199;-54
2022/05/06 12:20:31;;;;;;;2.47;2.03;;;;;;;;;;5116993;28;20206;-54
2022/05/06 12:22:59;;;;;;;2.80;2.38;;;;;;;;;;5116889;28;20205;-54
2022/05/06 12:25:26;;;;;;;2.20;2.00;;;;;;;;;;5116715;28;20203;-55
2022/05/06 12:28:04;;;;;;;2.10;1.90;;;;;;;;;;5116146;28;20203;-54
2022/05/06 12:30:33;;;;;;;2.03;1.85;;;;;;;;;;5116968;28;20714;-54
2022/05/06 12:33:07;;;;;;;2.45;1.77;;;;;;;;;;5115897;28;20218;-54
2022/05/06 12:35:49;;;;;;;2.05;1.85;;;;;;;;;;5117123;28;20234;-54
2022/05/06 12:38:17;;;;;;;2.20;1.90;;;;;;;;;;5116167;28;20203;-54
2022/05/06 12:40:44;;;;;;;2.33;1.92;;;;;;;;;;5116239;28;20632;-54
2022/05/06 12:43:12;;;;;;;1.85;1.70;;;;;;;;;;5116208;28;20267;-54
2022/05/06 12:45:52;;;;;;;2.33;1.88;;;;;;;;;;5116114;28;20192;-54
2022/05/06 12:51:04;;;;;;;2.10;1.90;;;;;;;;;;5115635;28;20647;-54
2022/05/06 12:53:33;;;;;;;2.03;1.83;;;;;;;;;;5115242;28;20202;-54
2022/05/06 12:56:01;;;;;;;1.92;1.73;;;;;;;;;;5115475;28;20290;-54
2022/05/06 12:58:28;;;;;;;1.90;1.70;;;;;;;;;;5116206;28;20211;-54
2022/05/06 13:00:58;;;;;;;1.85;1.65;;;;;;;;;;5115867;28;20198;-54
2022/05/06 13:03:25;;;;;;;1.70;1.60;;;;;;;;;;5098975;28;20195;-54
2022/05/06 13:05:52;;;;;;;1.65;1.55;;;;;;;;;;5115973;28;20213;-54
2022/05/06 13:08:20;;;;;;;2.10;1.90;;;;;;;;;;5116265;28;20213;-54
2022/05/06 13:10:47;;;;;;;1.70;1.50;;;;;;;;;;5115988;28;20195;-54
2022/05/06 13:13:15;;;;;;;1.73;1.60;;;;;;;;;;5115875;28;20203;-54
2022/05/06 13:15:43;;;;;;;1.60;1.50;;;;;;;;;;5116031;28;20226;-54
2022/05/06 13:18:12;;;;;;;1.80;1.60;;;;;;;;;;5115901;28;20206;-55
2022/05/06 13:20:39;;;;;;;1.80;1.70;;;;;;;;;;5116833;28;20195;-54
2022/05/06 13:23:07;;;;;;;1.92;1.73;;;;;;;;;;5116213;28;20613;-54
2022/05/06 13:25:36;;;;;;;1.77;1.67;;;;;;;;;;5116370;28;20211;-54
2022/05/06 13:28:03;;;;;;;1.60;1.50;;;;;;;;;;5114959;28;20210;-54
2022/05/06 13:30:31;;;;;;;1.55;1.45;;;;;;;;;;5116575;28;20226;-54
2022/05/06 13:32:58;;;;;;;1.88;1.63;;;;;;;;;;5115486;28;20196;-54
2022/05/06 13:35:28;;;;;;;1.70;1.50;;;;;;;;;;5116234;28;20223;-55
2022/05/06 13:37:55;;;;;;;1.75;1.60;;;;;;;;;;5115349;28;20686;-54
2022/05/06 13:40:23;;;;;;;2.30;1.60;;;;;;;;;;5116015;28;20202;-54
2022/05/06 13:42:50;;;;;;;1.60;1.50;;;;;;;;;;5115068;28;20230;-54
2022/05/06 13:45:18;;;;;;;1.83;1.60;;;;;;;;;;5116563;28;20195;-54
2022/05/06 13:47:45;;;;;;;1.70;1.60;;;;;;;;;;5114987;28;20648;-54
2022/05/06 13:50:13;;;;;;;1.60;1.50;;;;;;;;;;5115454;28;20206;-54
2022/05/06 13:52:42;;;;;;;1.70;1.52;;;;;;;;;;5115252;28;20199;-54
2022/05/06 13:55:09;;;;;;;1.63;1.52;;;;;;;;;;5115272;28;20222;-54
2022/05/06 14:00:23;;;;;;;1.88;1.70;;;;;;;;;;5115066;28;20201;-54
2022/05/06 14:02:52;;;;;;;1.50;1.40;;;;;;;;;;5113786;28;20241;-54
2022/05/06 14:05:19;;;;;;;1.60;1.42;;;;;;;;;;5114072;28;20199;-54
2022/05/06 14:07:48;;;;;;;1.50;1.40;;;;;;;;;;5114736;28;20726;-54
2022/05/06 14:10:16;;;;;;;1.65;1.40;;;;;;;;;;5115056;28;20203;-55
2022/05/06 14:12:44;;;;;;;1.63;1.52;;;;;;;;;;5113938;28;20490;-54
2022/05/06 14:15:12;;;;;;;1.20;1.10;;;;;;;;;;5115059;28;20325;-54
2022/05/06 14:17:40;;;;;;;1.35;1.25;;;;;;;;;;5115424;28;20208;-54
2022/05/06 14:20:08;;;;;;;1.38;1.25;;;;;;;;;;5115099;28;20198;-54
2022/05/06 14:22:35;;;;;;;1.38;1.27;;;;;;;;;;5114378;28;20205;-54
2022/05/06 14:25:04;;;;;;;1.60;1.50;;;;;;;;;;5115006;28;20195;-54
2022/05/06 14:27:31;;;;;;;1.40;1.30;;;;;;;;;;5114458;28;20195;-54
2022/05/06 14:29:59;;;;;;;1.30;1.20;;;;;;;;;;5114940;28;20225;-54
2022/05/06 14:32:27;;;;;;;1.60;1.50;;;;;;;;;;5113877;28;20199;-55
2022/05/06 14:35:16;;;;;;;2.10;1.33;;;;;;;;;;5113763;28;20262;-54
2022/05/06 14:37:43;;;;;;;1.33;1.23;;;;;;;;;;5113174;28;20303;-54
2022/05/06 14:40:12;;;;;;;1.55;1.45;;;;;;;;;;5113448;28;20203;-55
2022/05/06 14:42:39;;;;;;;1.40;1.30;;;;;;;;;;5114166;28;20233;-54
2022/05/06 14:45:08;;;;;;;1.33;1.23;;;;;;;;;;5113883;28;20202;-54
2022/05/06 14:47:35;;;;;;;1.48;1.20;;;;;;;;;;5113724;28;20199;-54
2022/05/06 14:50:03;;;;;;;1.58;1.48;;;;;;;;;;5113930;28;20199;-54
2022/05/06 14:52:30;;;;;;;1.20;1.10;;;;;;;;;;5113216;28;20203;-54
2022/05/06 14:54:59;;;;;;;1.80;1.30;;;;;;;;;;5113499;28;20273;-54
2022/05/06 14:57:27;;;;;;;1.30;1.20;;;;;;;;;;5113207;28;20263;-54
2022/05/06 14:59:55;;;;;;;1.33;1.23;;;;;;;;;;5113432;28;20214;-54
2022/05/06 15:02:22;;;;;;;1.25;1.15;;;;;;;;;;5113829;28;20606;-54
2022/05/06 15:04:50;;;;;;;2.25;1.40;;;;;;;;;;5113078;28;20195;-54
2022/05/06 15:07:17;;;;;;;1.45;1.30;;;;;;;;;;5113984;28;20233;-56
2022/05/06 15:09:44;;;;;;;1.52;1.42;;;;;;;;;;5116824;28;20206;-54
2022/05/06 15:12:14;;;;;;;1.30;1.20;;;;;;;;;;5117440;28;20190;-54
2022/05/06 15:14:43;;;;;;;1.15;1.08;;;;;;;;;;5118219;28;20219;-54
2022/05/06 15:17:15;;;;;;;1.33;1.23;;;;;;;;;;5118576;28;20199;-54
2022/05/06 15:19:43;;;;;;;1.52;1.15;;;;;;;;;;5117664;28;20226;-54
2022/05/06 15:22:11;;;;;;;1.88;1.38;;;;;;;;;;5118899;28;20209;-54
2022/05/06 15:24:38;;;;;;;1.38;1.10;;;;;;;;;;5118283;28;20195;-54
2022/05/06 15:27:05;;;;;;;1.30;1.20;;;;;;;;;;5118703;28;20214;-54
2022/05/06 15:29:33;;;;;;;1.42;1.30;;;;;;;;;;5115988;28;20203;-54
2022/05/06 15:32:03;;;;;;;1.60;1.30;;;;;;;;;;5116550;28;20210;-54
2022/05/06 15:34:31;;;;;;;1.30;1.20;;;;;;;;;;5117550;28;20199;-54
2022/05/06 15:36:59;;;;;;;1.20;1.13;;;;;;;;;;5117199;28;20234;-54
2022/05/06 15:39:26;;;;;;;1.30;1.20;;;;;;;;;;5117832;28;20210;-54
2022/05/06 15:41:53;;;;;;;1.40;1.30;;;;;;;;;;5117588;28;20226;-54
2022/05/06 15:44:21;;;;;;;1.23;1.10;;;;;;;;;;5117695;28;20207;-54